Aeroporto :
LOGIN :

Iscrizione | Disclaimer

   EN    FR    IT 

 










Sommario :    VFR   VFR Marginale   IFR   IFR Intensivo   IFR Molto Intensivo
Visibilità : 
Base nubi : 
>= 8 km
>= 3000ft
5 / 8 km
1000 / 3000 ft
1500m / 5 km
500 / 1000 ft
800 / 1500m
200 / 500 ft
< 800m
< 200 ft
Simboli :   Temporali  Nebbia  Neve Forte  Precipitazioni Forti  Vento > 20 kt
SIGMETs :   Varie  Temporali  Ghiacco  Turbolenza  Onda orograficha  Ceneri Vulcaniche







- Altitudine del aeroporto : 2595 ft
- Codice IATA : SLM


LESA - Salamanca Matacan

ULTIMO METAR :
  • 191230Z 06007KT 020V130 CAVOK 28/12 Q1022

METARs OBSOLETI :
  • 191200Z 08008KT 020V110 CAVOK 28/11 Q1022
  • 191130Z 07006KT 320V110 CAVOK 27/12 Q1022
  • 191100Z 06006KT 350V110 CAVOK 25/12 Q1023
  • 191030Z 08006KT 030V120 CAVOK 24/12 Q1023
  • 191000Z 07007KT 040V100 CAVOK 22/11 Q1023

TAF TAF LESA
Valido dal 19 a 12 ore il 20 a 12 ore UTC


191100Z 1912/2012 06008KT CAVOK TX30/1915Z TN13/2006Z
Nessun NOTAM noto per questo aeroporto.



MetMap, La meteo Aeronautica in un colpo d'occhio ! - Copyright ORBIFLY Dicembre 2007 - Disclaimer

ORBIFLY MET'MAP TEAM :

Programmazione e sviluppo : Alexandra Zaïnal
Concezione e sviluppo : Baudouin d'Aumeries
Co-Programmazione e sviluppo : Marc-Olivier Méhu
Supporto tecnico e logistico : Manuel Goepfert
Aiuto per la traduzione : Arnaldo La Scala

Contatto : metmap@orbifly.com




FONTI E CREDITI :

   NOAA